createdAt,value
2023-02-02T00:02:13.025Z,95166.63
2023-02-02T00:04:39.790Z,95161.78
2023-02-02T00:07:07.541Z,95169.31
2023-02-02T00:09:34.418Z,95162.63
2023-02-02T00:12:01.667Z,95162.38
2023-02-02T00:14:29.463Z,95156.00
2023-02-02T00:16:57.950Z,95160.06
2023-02-02T00:19:33.564Z,95160.41
2023-02-02T00:22:00.461Z,95167.19
2023-02-02T00:24:27.203Z,95167.28
2023-02-02T00:26:56.452Z,95167.28
2023-02-02T00:29:26.404Z,95170.06
2023-02-02T00:31:53.683Z,95173.59
2023-02-02T00:34:21.258Z,95165.63
2023-02-02T00:36:49.347Z,95180.28
2023-02-02T00:39:19.329Z,95174.84
2023-02-02T00:41:46.860Z,95189.72
2023-02-02T00:44:32.475Z,95185.34
2023-02-02T00:47:00.570Z,95184.22
2023-02-02T00:49:27.341Z,95175.69
2023-02-02T00:51:54.177Z,95183.34
2023-02-02T00:54:21.088Z,95178.69
2023-02-02T00:56:48.123Z,95179.56
2023-02-02T00:59:14.850Z,95181.69
2023-02-02T01:01:41.680Z,95171.88
2023-02-02T01:04:08.520Z,95176.84
2023-02-02T01:06:35.416Z,95160.19
2023-02-02T01:09:02.710Z,95171.66
2023-02-02T01:11:31.024Z,95169.59
2023-02-02T01:13:58.176Z,95160.63
2023-02-02T01:16:25.115Z,95162.63
2023-02-02T01:18:52.364Z,95157.41
2023-02-02T01:21:19.398Z,95162.88
2023-02-02T01:23:46.531Z,95152.16
2023-02-02T01:26:14.230Z,95155.56
2023-02-02T01:28:41.122Z,95155.66
2023-02-02T01:31:13.495Z,95146.16
2023-02-02T01:33:40.643Z,95144.47
2023-02-02T01:36:11.738Z,95134.63
2023-02-02T01:38:38.884Z,95145.59
2023-02-02T01:41:07.273Z,95128.84
2023-02-02T01:43:43.372Z,95141.03
2023-02-02T01:46:17.882Z,95135.38
2023-02-02T01:49:08.300Z,95137.47
2023-02-02T01:51:50.279Z,95135.78
2023-02-02T01:54:38.427Z,95133.72
2023-02-02T01:57:17.043Z,95123.13
2023-02-02T02:00:04.957Z,95132.88
2023-02-02T02:02:42.929Z,95113.09
2023-02-02T02:05:11.868Z,95111.94
2023-02-02T02:07:41.877Z,95109.88
2023-02-02T02:10:09.299Z,95106.78
2023-02-02T02:12:36.334Z,95116.34
2023-02-02T02:15:23.433Z,95124.09
2023-02-02T02:17:57.932Z,95130.19
2023-02-02T02:20:58.405Z,95126.31
2023-02-02T02:24:05.014Z,95130.91
2023-02-02T02:26:43.640Z,95135.72
2023-02-02T02:29:11.509Z,95128.50
2023-02-02T02:32:15.874Z,95122.31
2023-02-02T02:34:51.180Z,95127.41
2023-02-02T02:37:28.576Z,95128.06
2023-02-02T02:40:04.521Z,95128.91
2023-02-02T02:42:36.281Z,95125.81
2023-02-02T02:45:06.936Z,95109.84
2023-02-02T02:47:35.421Z,95123.63
2023-02-02T02:50:03.072Z,95127.59
2023-02-02T02:52:30.149Z,95121.25
2023-02-02T02:54:59.882Z,95125.75
2023-02-02T02:58:02.941Z,95118.66
2023-02-02T03:00:29.898Z,95119.56
2023-02-02T03:03:02.553Z,95128.22
2023-02-02T03:05:55.137Z,95116.44
2023-02-02T03:08:34.675Z,95118.56
2023-02-02T03:11:03.395Z,95116.72
2023-02-02T03:13:31.564Z,95119.63
2023-02-02T03:18:44.434Z,95121.09
2023-02-02T03:21:11.454Z,95107.31
2023-02-02T03:23:38.915Z,95114.50
2023-02-02T03:26:06.218Z,95113.75
2023-02-02T03:28:33.357Z,95115.84
2023-02-02T03:31:02.047Z,95119.44
2023-02-02T03:33:30.745Z,95117.84
2023-02-02T03:35:57.462Z,95129.88
2023-02-02T03:38:24.161Z,95123.44
2023-02-02T03:40:51.599Z,95125.81
2023-02-02T03:43:22.540Z,95125.47
2023-02-02T03:45:58.252Z,95116.59
2023-02-02T03:48:25.856Z,95124.34
2023-02-02T03:50:52.634Z,95135.19
2023-02-02T03:53:19.824Z,95137.88
2023-02-02T03:55:46.714Z,95136.63
2023-02-02T03:58:13.421Z,95141.53
2023-02-02T04:00:40.282Z,95138.03
2023-02-02T04:03:07.117Z,95115.25
2023-02-02T04:05:34.017Z,95129.94
2023-02-02T04:08:00.676Z,95122.66
2023-02-02T04:10:27.610Z,95135.63
2023-02-02T04:12:54.312Z,95132.22
2023-02-02T04:15:21.155Z,95133.81
2023-02-02T04:17:47.928Z,95127.25
2023-02-02T04:20:14.680Z,95129.94
2023-02-02T04:22:41.609Z,95118.78
2023-02-02T04:25:08.620Z,95116.44
2023-02-02T04:27:35.371Z,95135.78
2023-02-02T04:30:02.270Z,95131.28
2023-02-02T04:32:29.083Z,95126.13
2023-02-02T04:34:55.868Z,95146.44
2023-02-02T04:37:22.585Z,95139.81
2023-02-02T04:39:49.315Z,95141.47
2023-02-02T04:42:16.203Z,95131.91
2023-02-02T04:44:45.825Z,95146.25
2023-02-02T04:47:12.723Z,95159.50
2023-02-02T04:49:39.633Z,95157.06
2023-02-02T04:52:06.493Z,95150.75
2023-02-02T04:54:33.839Z,95158.94
2023-02-02T04:57:00.520Z,95139.75
2023-02-02T04:59:30.273Z,95149.97
2023-02-02T05:02:00.664Z,95150.34
2023-02-02T05:04:27.726Z,95149.41
2023-02-02T05:06:54.556Z,95136.66
2023-02-02T05:09:21.706Z,95152.72
2023-02-02T05:11:48.482Z,95163.72
2023-02-02T05:14:18.417Z,95155.16
2023-02-02T05:16:45.431Z,95152.00
2023-02-02T05:19:12.844Z,95156.47
2023-02-02T05:21:39.663Z,95148.72
2023-02-02T05:24:07.523Z,95143.75
2023-02-02T05:26:35.179Z,95148.22
2023-02-02T05:29:02.673Z,95146.53
2023-02-02T05:31:31.351Z,95155.91
2023-02-02T05:33:58.371Z,95158.00
2023-02-02T05:36:25.260Z,95159.31
2023-02-02T05:38:52.001Z,95163.97
2023-02-02T05:41:19.799Z,95172.97
2023-02-02T05:43:46.483Z,95165.03
2023-02-02T05:46:13.368Z,95169.25
2023-02-02T05:48:40.231Z,95176.25
2023-02-02T05:51:15.055Z,95170.44
2023-02-02T05:53:42.026Z,95177.00
2023-02-02T05:56:08.832Z,95174.31
2023-02-02T05:58:35.626Z,95183.41
2023-02-02T06:01:02.512Z,95180.78
2023-02-02T06:03:29.325Z,95182.34
2023-02-02T06:05:56.325Z,95177.38
2023-02-02T06:08:23.165Z,95171.50
2023-02-02T06:10:49.853Z,95178.69
2023-02-02T06:13:16.733Z,95178.81
2023-02-02T06:15:43.705Z,95185.63
2023-02-02T06:18:10.586Z,95183.81
2023-02-02T06:20:37.827Z,95185.47
2023-02-02T06:23:05.506Z,95188.06
2023-02-02T06:25:34.296Z,95199.19
2023-02-02T06:28:01.148Z,95189.38
2023-02-02T06:30:28.057Z,95204.44
2023-02-02T06:32:54.985Z,95208.81
2023-02-02T06:35:22.275Z,95211.03
2023-02-02T06:37:49.271Z,95206.22
2023-02-02T06:40:16.472Z,95211.75
2023-02-02T06:42:43.210Z,95209.09
2023-02-02T06:45:10.704Z,95233.16
2023-02-02T06:47:37.363Z,95213.75
2023-02-02T06:50:05.052Z,95221.44
2023-02-02T06:52:31.855Z,95212.91
2023-02-02T06:54:58.589Z,95229.53
2023-02-02T06:57:25.297Z,95231.41
2023-02-02T06:59:52.644Z,95220.97
2023-02-02T07:02:19.710Z,95230.44
2023-02-02T07:04:46.522Z,95219.59
2023-02-02T07:07:13.202Z,95232.31
2023-02-02T07:09:39.943Z,95239.44
2023-02-02T07:12:06.633Z,95234.53
2023-02-02T07:14:33.672Z,95229.56
2023-02-02T07:17:00.392Z,95231.41
2023-02-02T07:19:27.041Z,95235.88
2023-02-02T07:21:53.874Z,95234.75
2023-02-02T07:24:20.689Z,95220.50
2023-02-02T07:26:47.566Z,95232.31
2023-02-02T07:29:14.567Z,95240.53
2023-02-02T07:31:41.399Z,95232.47
2023-02-02T07:34:08.366Z,95252.91
2023-02-02T07:36:35.651Z,95244.88
2023-02-02T07:39:04.815Z,95252.28
2023-02-02T07:41:32.224Z,95244.63
2023-02-02T07:43:59.106Z,95253.88
2023-02-02T07:46:26.163Z,95238.66
2023-02-02T07:48:57.924Z,95230.72
2023-02-02T07:51:26.013Z,95227.94
2023-02-02T07:53:54.258Z,95203.94
2023-02-02T07:56:24.304Z,95200.34
2023-02-02T07:58:55.915Z,95199.19
2023-02-02T08:01:23.701Z,95194.44
2023-02-02T08:03:50.929Z,95198.44
2023-02-02T08:06:23.879Z,95197.34
2023-02-02T08:08:51.560Z,95190.22
2023-02-02T08:11:21.583Z,95191.00
2023-02-02T08:13:49.851Z,95190.06
2023-02-02T08:16:16.895Z,95195.19
2023-02-02T08:18:44.322Z,95167.50
2023-02-02T08:21:12.758Z,95187.59
2023-02-02T08:23:41.359Z,95177.97
2023-02-02T08:26:31.762Z,95184.13
2023-02-02T08:29:05.743Z,95183.06
2023-02-02T08:31:37.109Z,95146.47
2023-02-02T08:34:04.555Z,95172.34
2023-02-02T08:36:32.115Z,95167.63
2023-02-02T08:39:08.051Z,95156.66
2023-02-02T08:41:36.959Z,95157.97
2023-02-02T08:44:11.167Z,95145.97
2023-02-02T08:46:38.808Z,95148.63
2023-02-02T08:49:05.623Z,95145.00
2023-02-02T08:51:32.904Z,95132.19
2023-02-02T08:53:59.704Z,95126.47
2023-02-02T08:56:26.679Z,95132.16
2023-02-02T08:58:55.621Z,95134.22
2023-02-02T09:01:25.391Z,95144.56
2023-02-02T09:03:59.430Z,95146.41
2023-02-02T09:06:36.196Z,95150.22
2023-02-02T09:09:04.796Z,95148.69
2023-02-02T09:11:31.771Z,95138.50
2023-02-02T09:14:00.476Z,95131.72
2023-02-02T09:16:28.245Z,95135.03
2023-02-02T09:18:56.472Z,95137.59
2023-02-02T09:21:23.507Z,95136.59
2023-02-02T09:23:51.377Z,95137.16
2023-02-02T09:26:25.837Z,95130.03
2023-02-02T09:28:54.665Z,95127.78
2023-02-02T09:31:21.909Z,95120.03
2023-02-02T09:33:49.027Z,95114.84
2023-02-02T09:36:27.009Z,95108.53
2023-02-02T09:38:54.083Z,95109.09
2023-02-02T09:41:35.663Z,95095.97
2023-02-02T09:44:24.257Z,95088.09
2023-02-02T09:47:21.539Z,95064.50
2023-02-02T09:49:54.283Z,95092.78
2023-02-02T09:52:27.326Z,95081.16
2023-02-02T09:55:00.853Z,95080.13
2023-02-02T09:57:38.130Z,95074.56
2023-02-02T10:00:16.026Z,95073.78
2023-02-02T10:02:45.843Z,95065.97
2023-02-02T10:05:19.448Z,95068.16
2023-02-02T10:07:50.938Z,95079.72
2023-02-02T10:10:33.118Z,95052.09
2023-02-02T10:13:06.888Z,95064.75
2023-02-02T10:15:44.388Z,95046.03
2023-02-02T10:18:36.890Z,95048.88
2023-02-02T10:21:12.607Z,95055.81
2023-02-02T10:23:42.118Z,95050.09
2023-02-02T10:26:14.493Z,95041.47
2023-02-02T10:28:51.755Z,95042.47
2023-02-02T10:31:57.566Z,95049.13
2023-02-02T10:34:42.770Z,95044.41
2023-02-02T10:37:24.674Z,95037.56
2023-02-02T10:40:12.640Z,95029.25
2023-02-02T10:43:09.530Z,95027.38
2023-02-02T10:45:40.799Z,95013.06
2023-02-02T10:48:36.049Z,95006.53
2023-02-02T10:51:11.478Z,94993.63
2023-02-02T10:53:38.736Z,94988.53
2023-02-02T10:56:08.801Z,94987.59
2023-02-02T10:58:58.330Z,94989.38
2023-02-02T11:01:25.193Z,94982.84
2023-02-02T11:04:14.798Z,94973.66
2023-02-02T11:06:51.211Z,94966.22
2023-02-02T11:09:40.424Z,94967.47
2023-02-02T11:12:20.944Z,94961.94
2023-02-02T11:14:54.126Z,94968.31
2023-02-02T11:17:26.104Z,94958.72
2023-02-02T11:19:55.757Z,94958.31
2023-02-02T11:22:26.696Z,94951.59
2023-02-02T11:24:54.365Z,94962.88
2023-02-02T11:27:24.275Z,94964.88
2023-02-02T11:29:53.736Z,94937.72
2023-02-02T11:32:35.793Z,94923.09
2023-02-02T11:35:21.369Z,94927.38
2023-02-02T11:37:57.097Z,94931.72
2023-02-02T11:40:28.767Z,94922.16
2023-02-02T11:42:59.208Z,94921.97
2023-02-02T11:45:41.519Z,94916.94
2023-02-02T11:48:16.074Z,94911.16
2023-02-02T11:50:51.826Z,94912.22
2023-02-02T11:53:29.457Z,94912.81
2023-02-02T11:55:59.392Z,94895.00
2023-02-02T11:58:29.831Z,94900.41
2023-02-02T12:01:02.490Z,94884.69
2023-02-02T12:03:47.717Z,94884.38
2023-02-02T12:06:23.114Z,94886.13
2023-02-02T12:08:51.871Z,94879.41
2023-02-02T12:11:50.888Z,94881.56
2023-02-02T12:14:20.549Z,94877.88
2023-02-02T12:16:59.480Z,94881.47
2023-02-02T12:19:29.158Z,94885.34
2023-02-02T12:22:03.949Z,94883.53
2023-02-02T12:24:54.111Z,94902.28
2023-02-02T12:27:29.728Z,94906.84
2023-02-02T12:30:08.841Z,94897.25
2023-02-02T12:33:00.452Z,94901.28
2023-02-02T12:35:57.117Z,94903.22
2023-02-02T12:38:38.729Z,94895.75
2023-02-02T12:41:43.724Z,94891.34
2023-02-02T12:44:16.475Z,94888.59
2023-02-02T12:47:18.531Z,94892.81
2023-02-02T12:49:51.060Z,94893.00
2023-02-02T12:52:23.615Z,94901.47
2023-02-02T12:55:04.453Z,94907.34
2023-02-02T12:57:31.387Z,94891.28
2023-02-02T13:00:28.840Z,94899.53
2023-02-02T13:03:18.920Z,94880.28
2023-02-02T13:06:23.232Z,94885.66
2023-02-02T13:08:54.749Z,94886.50
2023-02-02T13:11:50.008Z,94889.00
2023-02-02T13:14:37.520Z,94887.28
2023-02-02T13:17:18.601Z,94859.53
2023-02-02T13:19:52.224Z,94878.13
2023-02-02T13:22:27.002Z,94883.94
2023-02-02T13:24:59.437Z,94875.34
2023-02-02T13:27:29.182Z,94887.28
2023-02-02T13:30:03.073Z,94876.88
2023-02-02T13:32:34.450Z,94876.06
2023-02-02T13:35:11.137Z,94871.47
2023-02-02T13:37:47.559Z,94878.88
2023-02-02T13:40:40.784Z,94876.22
2023-02-02T13:43:29.896Z,94866.50
2023-02-02T13:46:07.045Z,94863.00
2023-02-02T13:49:02.849Z,94865.75
2023-02-02T13:51:55.569Z,94861.72
2023-02-02T13:54:37.653Z,94876.16
2023-02-02T13:57:16.451Z,94877.19
2023-02-02T14:00:13.804Z,94878.88
2023-02-02T14:02:43.909Z,94865.63
2023-02-02T14:05:24.210Z,94869.91
2023-02-02T14:08:16.070Z,94865.19
2023-02-02T14:10:45.426Z,94859.47
2023-02-02T14:13:32.160Z,94867.59
2023-02-02T14:16:02.009Z,94880.84
2023-02-02T14:18:50.213Z,94900.88
2023-02-02T14:21:32.334Z,94885.88
2023-02-02T14:23:59.136Z,94882.75
2023-02-02T14:26:46.291Z,94897.22
2023-02-02T14:29:37.267Z,94898.28
2023-02-02T14:32:23.856Z,94913.09
2023-02-02T14:34:55.298Z,94927.00
2023-02-02T14:37:24.980Z,94943.00
2023-02-02T14:40:06.946Z,94953.53
2023-02-02T14:43:26.517Z,94958.25
2023-02-02T14:46:14.916Z,94978.94
2023-02-02T14:48:54.834Z,95003.06
2023-02-02T14:51:26.704Z,95028.56
2023-02-02T14:54:01.237Z,95038.09
2023-02-02T14:56:49.877Z,95057.06
2023-02-02T14:59:22.178Z,95078.34
2023-02-02T15:02:22.020Z,95081.06
2023-02-02T15:04:49.711Z,95087.78
2023-02-02T15:07:22.566Z,95106.22
2023-02-02T15:09:50.631Z,95092.19
2023-02-02T15:12:18.490Z,95082.63
2023-02-02T15:15:12.474Z,95109.84
2023-02-02T15:17:39.637Z,95112.69
2023-02-02T15:20:11.989Z,95130.09
2023-02-02T15:22:47.310Z,95144.69
2023-02-02T15:25:21.687Z,95145.09
2023-02-02T15:28:09.034Z,95168.72
2023-02-02T15:30:41.737Z,95160.50
2023-02-02T15:33:21.478Z,95161.78
2023-02-02T15:35:49.116Z,95169.75
2023-02-02T15:38:20.423Z,95178.03
2023-02-02T15:40:47.489Z,95178.50
2023-02-02T15:43:15.466Z,95163.94
2023-02-02T15:45:48.465Z,95171.13
2023-02-02T15:48:25.502Z,95175.25
2023-02-02T15:50:57.199Z,95200.06
2023-02-02T15:53:32.724Z,95193.06
2023-02-02T15:56:00.130Z,95190.50
2023-02-02T15:58:34.081Z,95200.44
2023-02-02T16:01:16.341Z,95209.81
2023-02-02T16:04:08.228Z,95210.06
2023-02-02T16:06:35.860Z,95219.63
2023-02-02T16:09:04.662Z,95219.78
2023-02-02T16:11:31.678Z,95208.94
2023-02-02T16:14:05.740Z,95202.28
2023-02-02T16:16:38.124Z,95206.19
2023-02-02T16:19:08.978Z,95233.94
2023-02-02T16:21:41.692Z,95246.31
2023-02-02T16:24:15.523Z,95233.63
2023-02-02T16:26:42.404Z,95237.41
2023-02-02T16:29:17.444Z,95253.50
2023-02-02T16:31:49.524Z,95233.13
2023-02-02T16:34:40.225Z,95225.56
2023-02-02T16:37:15.565Z,95238.75
2023-02-02T16:39:42.458Z,95238.63
2023-02-02T16:42:23.538Z,95231.44
2023-02-02T16:44:50.840Z,95237.22
2023-02-02T16:47:26.778Z,95246.31
2023-02-02T16:49:54.676Z,95249.78
2023-02-02T16:52:22.634Z,95261.34
2023-02-02T16:54:56.529Z,95245.84
2023-02-02T16:57:27.319Z,95238.56
2023-02-02T16:59:57.607Z,95262.53
2023-02-02T17:02:29.900Z,95260.69
2023-02-02T17:05:21.257Z,95255.66
2023-02-02T17:07:55.378Z,95249.22
2023-02-02T17:10:31.218Z,95263.88
2023-02-02T17:12:59.880Z,95253.00
2023-02-02T17:15:34.112Z,95241.81
2023-02-02T17:18:02.544Z,95271.13
2023-02-02T17:20:29.575Z,95270.59
2023-02-02T17:23:03.775Z,95271.25
2023-02-02T17:25:38.179Z,95270.16
2023-02-02T17:28:11.187Z,95253.38
2023-02-02T17:30:41.793Z,95238.59
2023-02-02T17:33:14.899Z,95246.75
2023-02-02T17:35:53.599Z,95236.25
2023-02-02T17:38:25.119Z,95246.66
2023-02-02T17:40:52.840Z,95267.97
2023-02-02T17:43:19.823Z,95268.56
2023-02-02T17:45:47.760Z,95266.84
2023-02-02T17:48:15.034Z,95246.31
2023-02-02T17:50:42.766Z,95267.75
2023-02-02T17:53:16.289Z,95266.63
2023-02-02T17:55:44.673Z,95265.28
2023-02-02T17:58:15.008Z,95256.53
2023-02-02T18:00:43.102Z,95258.66
2023-02-02T18:03:26.795Z,95279.53
2023-02-02T18:05:53.765Z,95278.97
2023-02-02T18:08:20.503Z,95274.88
2023-02-02T18:10:47.245Z,95275.00
2023-02-02T18:13:16.268Z,95278.63
2023-02-02T18:15:43.922Z,95275.41
2023-02-02T18:18:12.524Z,95275.56
2023-02-02T18:20:48.025Z,95277.47
2023-02-02T18:23:15.840Z,95274.50
2023-02-02T18:25:42.601Z,95286.22
2023-02-02T18:28:10.805Z,95280.75
2023-02-02T18:30:39.127Z,95286.31
2023-02-02T18:33:11.088Z,95292.72
2023-02-02T18:35:42.511Z,95292.09
2023-02-02T18:38:09.832Z,95290.88
2023-02-02T18:40:36.984Z,95282.59
2023-02-02T18:43:04.083Z,95283.63
2023-02-02T18:45:31.127Z,95292.84
2023-02-02T18:47:57.845Z,95296.94
2023-02-02T18:50:24.930Z,95301.09
2023-02-02T18:52:51.860Z,95299.22
2023-02-02T18:55:18.630Z,95302.22
2023-02-02T18:57:45.417Z,95305.16
2023-02-02T19:00:12.665Z,95299.84
2023-02-02T19:02:39.532Z,95305.69
2023-02-02T19:05:25.826Z,95305.09
2023-02-02T19:07:57.103Z,95310.06
2023-02-02T19:10:25.660Z,95311.63
2023-02-02T19:13:00.881Z,95306.22
2023-02-02T19:15:28.033Z,95314.72
2023-02-02T19:17:55.460Z,95305.72
2023-02-02T19:20:28.544Z,95324.75
2023-02-02T19:23:01.954Z,95321.72
2023-02-02T19:25:29.147Z,95315.97
2023-02-02T19:27:56.288Z,95303.47
2023-02-02T19:30:23.968Z,95304.97
2023-02-02T19:32:51.200Z,95322.72
2023-02-02T19:35:20.920Z,95316.63
2023-02-02T19:37:49.696Z,95315.16
2023-02-02T19:40:22.823Z,95324.66
2023-02-02T19:43:19.373Z,95328.19
2023-02-02T19:45:46.372Z,95326.69
2023-02-02T19:48:22.806Z,95326.78
2023-02-02T19:50:49.712Z,95326.13
2023-02-02T19:53:19.561Z,95330.38
2023-02-02T19:55:47.265Z,95329.97
2023-02-02T19:58:19.688Z,95332.72
2023-02-02T20:00:52.108Z,95328.31
2023-02-02T20:03:22.573Z,95327.53
2023-02-02T20:05:52.574Z,95330.16
2023-02-02T20:08:28.286Z,95335.09
2023-02-02T20:10:58.684Z,95337.59
2023-02-02T20:13:35.855Z,95328.31
2023-02-02T20:16:04.875Z,95326.69
2023-02-02T20:18:58.679Z,95323.19
2023-02-02T20:21:50.128Z,95292.53
2023-02-02T20:24:28.356Z,95314.59
2023-02-02T20:27:00.753Z,95303.59
2023-02-02T20:29:38.485Z,95311.78
2023-02-02T20:32:08.225Z,95309.78
2023-02-02T20:34:40.264Z,95310.91
2023-02-02T20:37:12.725Z,95308.91
2023-02-02T20:39:47.705Z,95324.06
2023-02-02T20:42:15.268Z,95321.75
2023-02-02T20:44:42.358Z,95311.22
2023-02-02T20:47:09.535Z,95313.94
2023-02-02T20:49:37.457Z,95299.13
2023-02-02T20:52:11.240Z,95301.31
2023-02-02T20:54:39.005Z,95300.75
2023-02-02T20:57:06.267Z,95304.34
2023-02-02T20:59:33.060Z,95306.72
2023-02-02T21:02:00.240Z,95301.16
2023-02-02T21:04:27.276Z,95301.50
2023-02-02T21:06:55.389Z,95294.66
2023-02-02T21:09:22.488Z,95319.38
2023-02-02T21:11:49.407Z,95310.41
2023-02-02T21:14:16.255Z,95305.41
2023-02-02T21:16:43.144Z,95307.88
2023-02-02T21:19:10.180Z,95324.06
2023-02-02T21:21:36.981Z,95311.97
2023-02-02T21:24:04.320Z,95300.47
2023-02-02T21:26:31.196Z,95303.09
2023-02-02T21:28:58.583Z,95298.53
2023-02-02T21:31:26.500Z,95299.56
2023-02-02T21:33:53.896Z,95291.28
2023-02-02T21:36:42.768Z,95284.56
2023-02-02T21:39:23.401Z,95293.88
2023-02-02T21:41:54.325Z,95303.78
2023-02-02T21:44:22.602Z,95306.31
2023-02-02T21:46:54.338Z,95322.75
2023-02-02T21:49:26.307Z,95320.75
2023-02-02T21:51:59.204Z,95316.63
2023-02-02T21:54:36.888Z,95310.03
2023-02-02T21:57:19.947Z,95315.84
2023-02-02T21:59:56.379Z,95318.78
2023-02-02T22:02:42.547Z,95319.75
2023-02-02T22:05:27.860Z,95321.97
2023-02-02T22:07:58.935Z,95332.69
2023-02-02T22:10:32.910Z,95342.22
2023-02-02T22:13:01.026Z,95333.94
2023-02-02T22:15:34.559Z,95333.69
2023-02-02T22:18:12.903Z,95319.75
2023-02-02T22:20:44.010Z,95316.91
2023-02-02T22:23:12.254Z,95322.72
2023-02-02T22:25:40.895Z,95321.13
2023-02-02T22:28:27.840Z,95331.94
2023-02-02T22:30:56.248Z,95330.84
2023-02-02T22:33:23.574Z,95331.09
2023-02-02T22:35:51.432Z,95327.84
2023-02-02T22:38:20.756Z,95328.19
2023-02-02T22:40:48.863Z,95319.53
2023-02-02T22:43:17.028Z,95323.47
2023-02-02T22:45:44.796Z,95319.25
2023-02-02T22:48:12.747Z,95327.56
2023-02-02T22:50:40.306Z,95316.44
2023-02-02T22:53:07.102Z,95308.97
2023-02-02T22:55:34.219Z,95287.19
2023-02-02T22:58:01.215Z,95305.06
2023-02-02T23:00:30.149Z,95292.16
2023-02-02T23:02:57.484Z,95303.22
2023-02-02T23:05:25.992Z,95298.66
2023-02-02T23:07:53.852Z,95296.84
2023-02-02T23:10:24.193Z,95291.84
2023-02-02T23:12:54.013Z,95297.06
2023-02-02T23:15:21.176Z,95306.19
2023-02-02T23:17:48.690Z,95312.50
2023-02-02T23:20:16.658Z,95304.59
2023-02-02T23:22:43.564Z,95308.09
2023-02-02T23:25:11.410Z,95305.75
2023-02-02T23:27:38.527Z,95299.28
2023-02-02T23:30:07.766Z,95296.16
2023-02-02T23:32:34.890Z,95294.53
2023-02-02T23:35:01.703Z,95303.91
2023-02-02T23:37:28.517Z,95308.44
2023-02-02T23:39:55.205Z,95308.88
2023-02-02T23:42:21.944Z,95311.38
2023-02-02T23:44:48.872Z,95307.06
2023-02-02T23:47:15.981Z,95312.53
2023-02-02T23:49:43.419Z,95295.16
2023-02-02T23:52:10.477Z,95320.59
2023-02-02T23:54:37.722Z,95315.44
2023-02-02T23:57:04.979Z,95297.31
2023-02-02T23:59:31.780Z,95309.09
